sensor_id;sensor_type;location;lat;lon;timestamp;pressure;altitude;pressure_sealevel;temperature;humidity
71567;BME280;59403;47.456;19.120;2023-02-28T00:01:26;101508.59;;;0.28;66.28
71567;BME280;59403;47.456;19.120;2023-02-28T00:03:53;101507.81;;;0.26;65.67
71567;BME280;59403;47.456;19.120;2023-02-28T00:06:21;101512.09;;;0.27;65.97
71567;BME280;59403;47.456;19.120;2023-02-28T00:08:49;101519.00;;;0.28;65.89
71567;BME280;59403;47.456;19.120;2023-02-28T00:11:16;101519.91;;;0.27;66.03
71567;BME280;59403;47.456;19.120;2023-02-28T00:13:45;101522.19;;;0.34;66.24
71567;BME280;59403;47.456;19.120;2023-02-28T00:16:15;101519.66;;;0.33;66.73
71567;BME280;59403;47.456;19.120;2023-02-28T00:18:42;101528.19;;;0.36;67.14
71567;BME280;59403;47.456;19.120;2023-02-28T00:21:09;101524.72;;;0.36;66.56
71567;BME280;59403;47.456;19.120;2023-02-28T00:23:37;101530.81;;;0.36;66.72
71567;BME280;59403;47.456;19.120;2023-02-28T00:26:04;101530.88;;;0.35;66.90
71567;BME280;59403;47.456;19.120;2023-02-28T00:28:31;101533.25;;;0.39;66.49
71567;BME280;59403;47.456;19.120;2023-02-28T00:30:58;101535.81;;;0.41;66.98
71567;BME280;59403;47.456;19.120;2023-02-28T00:33:27;101536.53;;;0.44;67.17
71567;BME280;59403;47.456;19.120;2023-02-28T00:36:04;101537.50;;;0.42;67.18
71567;BME280;59403;47.456;19.120;2023-02-28T00:38:32;101538.34;;;0.42;66.75
71567;BME280;59403;47.456;19.120;2023-02-28T00:40:58;101534.94;;;0.40;66.74
71567;BME280;59403;47.456;19.120;2023-02-28T00:43:30;101546.88;;;0.46;67.39
71567;BME280;59403;47.456;19.120;2023-02-28T00:45:57;101540.94;;;0.42;66.92
71567;BME280;59403;47.456;19.120;2023-02-28T00:48:24;101541.16;;;0.38;66.81
71567;BME280;59403;47.456;19.120;2023-02-28T00:50:52;101545.37;;;0.40;66.78
71567;BME280;59403;47.456;19.120;2023-02-28T00:53:19;101541.94;;;0.40;67.32
71567;BME280;59403;47.456;19.120;2023-02-28T00:55:46;101544.72;;;0.35;66.74
71567;BME280;59403;47.456;19.120;2023-02-28T00:58:13;101546.34;;;0.38;67.08
71567;BME280;59403;47.456;19.120;2023-02-28T01:00:39;101540.44;;;0.34;66.60
71567;BME280;59403;47.456;19.120;2023-02-28T01:03:06;101542.97;;;0.36;66.84
71567;BME280;59403;47.456;19.120;2023-02-28T01:05:33;101542.19;;;0.34;67.30
71567;BME280;59403;47.456;19.120;2023-02-28T01:08:02;101541.09;;;0.39;67.51
71567;BME280;59403;47.456;19.120;2023-02-28T01:10:28;101552.16;;;0.44;67.25
71567;BME280;59403;47.456;19.120;2023-02-28T01:12:57;101542.59;;;0.45;67.43
71567;BME280;59403;47.456;19.120;2023-02-28T01:15:24;101546.81;;;0.47;67.32
71567;BME280;59403;47.456;19.120;2023-02-28T01:17:51;101548.63;;;0.45;67.94
71567;BME280;59403;47.456;19.120;2023-02-28T01:20:18;101553.72;;;0.48;67.69
71567;BME280;59403;47.456;19.120;2023-02-28T01:22:45;101553.66;;;0.50;67.92
71567;BME280;59403;47.456;19.120;2023-02-28T01:25:13;101544.91;;;0.51;67.68
71567;BME280;59403;47.456;19.120;2023-02-28T01:27:40;101540.62;;;0.50;67.84
71567;BME280;59403;47.456;19.120;2023-02-28T01:30:08;101548.44;;;0.50;68.02
71567;BME280;59403;47.456;19.120;2023-02-28T01:32:35;101544.41;;;0.43;68.26
71567;BME280;59403;47.456;19.120;2023-02-28T01:35:03;101547.81;;;0.45;68.21
71567;BME280;59403;47.456;19.120;2023-02-28T01:37:29;101549.47;;;0.46;68.25
71567;BME280;59403;47.456;19.120;2023-02-28T01:39:56;101555.75;;;0.42;68.87
71567;BME280;59403;47.456;19.120;2023-02-28T01:42:24;101548.19;;;0.36;68.15
71567;BME280;59403;47.456;19.120;2023-02-28T01:44:58;101546.66;;;0.30;68.17
71567;BME280;59403;47.456;19.120;2023-02-28T01:47:28;101545.00;;;0.29;68.43
71567;BME280;59403;47.456;19.120;2023-02-28T01:49:56;101548.50;;;0.28;68.77
71567;BME280;59403;47.456;19.120;2023-02-28T01:52:24;101548.69;;;0.24;68.76
71567;BME280;59403;47.456;19.120;2023-02-28T01:54:54;101547.12;;;0.20;69.20
71567;BME280;59403;47.456;19.120;2023-02-28T01:57:26;101547.69;;;0.26;68.73
71567;BME280;59403;47.456;19.120;2023-02-28T01:59:57;101543.41;;;0.25;69.49
71567;BME280;59403;47.456;19.120;2023-02-28T02:05:05;101546.03;;;0.25;69.78
71567;BME280;59403;47.456;19.120;2023-02-28T02:07:35;101545.00;;;0.29;69.41
71567;BME280;59403;47.456;19.120;2023-02-28T02:10:11;101540.03;;;0.23;70.30
71567;BME280;59403;47.456;19.120;2023-02-28T02:13:10;101536.38;;;0.27;70.04
71567;BME280;59403;47.456;19.120;2023-02-28T02:15:46;101547.66;;;0.28;69.95
71567;BME280;59403;47.456;19.120;2023-02-28T02:18:22;101541.41;;;0.32;69.74
71567;BME280;59403;47.456;19.120;2023-02-28T02:21:46;101545.94;;;0.27;70.22
71567;BME280;59403;47.456;19.120;2023-02-28T02:24:48;101541.59;;;0.27;70.12
71567;BME280;59403;47.456;19.120;2023-02-28T02:27:32;101536.25;;;0.30;70.21
71567;BME280;59403;47.456;19.120;2023-02-28T02:30:44;101536.13;;;0.33;69.93
71567;BME280;59403;47.456;19.120;2023-02-28T02:36:27;101533.78;;;0.27;70.31
71567;BME280;59403;47.456;19.120;2023-02-28T02:39:04;101537.03;;;0.32;70.56
71567;BME280;59403;47.456;19.120;2023-02-28T02:41:36;101540.59;;;0.30;70.32
71567;BME280;59403;47.456;19.120;2023-02-28T02:44:06;101535.34;;;0.31;70.44
71567;BME280;59403;47.456;19.120;2023-02-28T02:46:39;101533.66;;;0.30;70.87
71567;BME280;59403;47.456;19.120;2023-02-28T02:49:10;101539.72;;;0.31;71.16
71567;BME280;59403;47.456;19.120;2023-02-28T02:51:42;101540.56;;;0.31;70.58
71567;BME280;59403;47.456;19.120;2023-02-28T02:54:14;101539.50;;;0.35;70.10
71567;BME280;59403;47.456;19.120;2023-02-28T02:56:45;101535.88;;;0.39;70.15
71567;BME280;59403;47.456;19.120;2023-02-28T02:59:16;101533.41;;;0.36;69.44
71567;BME280;59403;47.456;19.120;2023-02-28T03:01:49;101538.63;;;0.36;69.31
71567;BME280;59403;47.456;19.120;2023-02-28T03:04:19;101536.78;;;0.38;69.10
71567;BME280;59403;47.456;19.120;2023-02-28T03:06:48;101530.91;;;0.33;69.10
71567;BME280;59403;47.456;19.120;2023-02-28T03:09:14;101539.56;;;0.34;69.00
71567;BME280;59403;47.456;19.120;2023-02-28T03:11:41;101536.00;;;0.36;68.87
71567;BME280;59403;47.456;19.120;2023-02-28T03:14:36;101542.91;;;0.37;68.26
71567;BME280;59403;47.456;19.120;2023-02-28T03:17:22;101548.91;;;0.39;68.24
71567;BME280;59403;47.456;19.120;2023-02-28T03:19:55;101545.37;;;0.40;67.55
71567;BME280;59403;47.456;19.120;2023-02-28T03:22:40;101547.94;;;0.42;67.95
71567;BME280;59403;47.456;19.120;2023-02-28T03:25:18;101555.75;;;0.42;67.53
71567;BME280;59403;47.456;19.120;2023-02-28T03:27:54;101548.97;;;0.38;66.85
71567;BME280;59403;47.456;19.120;2023-02-28T03:30:27;101547.97;;;0.40;67.65
71567;BME280;59403;47.456;19.120;2023-02-28T03:32:58;101554.09;;;0.39;67.39
71567;BME280;59403;47.456;19.120;2023-02-28T03:35:31;101553.16;;;0.42;68.02
71567;BME280;59403;47.456;19.120;2023-02-28T03:38:06;101552.16;;;0.44;67.53
71567;BME280;59403;47.456;19.120;2023-02-28T03:40:37;101542.53;;;0.46;67.58
71567;BME280;59403;47.456;19.120;2023-02-28T03:43:11;101540.12;;;0.42;66.64
71567;BME280;59403;47.456;19.120;2023-02-28T03:45:41;101552.28;;;0.41;66.46
71567;BME280;59403;47.456;19.120;2023-02-28T03:48:13;101551.19;;;0.47;67.19
71567;BME280;59403;47.456;19.120;2023-02-28T03:50:44;101556.41;;;0.47;67.44
71567;BME280;59403;47.456;19.120;2023-02-28T03:53:19;101553.72;;;0.48;67.60
71567;BME280;59403;47.456;19.120;2023-02-28T03:55:51;101553.66;;;0.50;67.54
71567;BME280;59403;47.456;19.120;2023-02-28T03:58:24;101553.78;;;0.47;67.41
71567;BME280;59403;47.456;19.120;2023-02-28T04:00:56;101548.69;;;0.44;67.76
71567;BME280;59403;47.456;19.120;2023-02-28T04:03:25;101553.06;;;0.43;67.64
71567;BME280;59403;47.456;19.120;2023-02-28T04:05:53;101551.28;;;0.44;67.66
71567;BME280;59403;47.456;19.120;2023-02-28T04:08:22;101548.63;;;0.45;67.94
71567;BME280;59403;47.456;19.120;2023-02-28T04:10:55;101548.75;;;0.42;68.28
71567;BME280;59403;47.456;19.120;2023-02-28T04:13:23;101543.91;;;0.35;68.42
71567;BME280;59403;47.456;19.120;2023-02-28T04:15:50;101535.94;;;0.38;68.98
71567;BME280;59403;47.456;19.120;2023-02-28T04:18:17;101540.12;;;0.42;68.50
71567;BME280;59403;47.456;19.120;2023-02-28T04:20:44;101541.81;;;0.43;68.08
71567;BME280;59403;47.456;19.120;2023-02-28T04:23:11;101543.41;;;0.45;67.92
71567;BME280;59403;47.456;19.120;2023-02-28T04:25:39;101539.19;;;0.43;67.92
71567;BME280;59403;47.456;19.120;2023-02-28T04:28:06;101536.84;;;0.37;68.11
71567;BME280;59403;47.456;19.120;2023-02-28T04:30:33;101535.94;;;0.38;67.25
71567;BME280;59403;47.456;19.120;2023-02-28T04:33:00;101535.81;;;0.41;67.38
71567;BME280;59403;47.456;19.120;2023-02-28T04:35:27;101532.34;;;0.40;67.57
71567;BME280;59403;47.456;19.120;2023-02-28T04:37:53;101532.53;;;0.36;67.15
71567;BME280;59403;47.456;19.120;2023-02-28T04:40:20;101541.16;;;0.38;67.11
71567;BME280;59403;47.456;19.120;2023-02-28T04:42:48;101535.88;;;0.39;67.26
71567;BME280;59403;47.456;19.120;2023-02-28T04:45:16;101533.41;;;0.36;67.04
71567;BME280;59403;47.456;19.120;2023-02-28T04:47:42;101539.34;;;0.40;67.27
71567;BME280;59403;47.456;19.120;2023-02-28T04:50:10;101539.41;;;0.38;67.49
71567;BME280;59403;47.456;19.120;2023-02-28T04:52:37;101541.09;;;0.39;67.00
71567;BME280;59403;47.456;19.120;2023-02-28T04:55:05;101541.22;;;0.36;67.30
71567;BME280;59403;47.456;19.120;2023-02-28T04:57:32;101540.16;;;0.40;67.61
71567;BME280;59403;47.456;19.120;2023-02-28T05:00:00;101527.84;;;0.44;67.21
71567;BME280;59403;47.456;19.120;2023-02-28T05:02:30;101536.44;;;0.46;67.20
71567;BME280;59403;47.456;19.120;2023-02-28T05:04:57;101533.00;;;0.45;67.29
71567;BME280;59403;47.456;19.120;2023-02-28T05:07:24;101536.38;;;0.47;67.23
71567;BME280;59403;47.456;19.120;2023-02-28T05:09:51;101526.03;;;0.46;67.19
71567;BME280;59403;47.456;19.120;2023-02-28T05:12:18;101531.25;;;0.46;67.81
71567;BME280;59403;47.456;19.120;2023-02-28T05:14:45;101532.16;;;0.45;67.80
71567;BME280;59403;47.456;19.120;2023-02-28T05:17:14;101530.44;;;0.44;67.85
71567;BME280;59403;47.456;19.120;2023-02-28T05:19:42;101534.91;;;0.42;67.77
71567;BME280;59403;47.456;19.120;2023-02-28T05:22:13;101533.12;;;0.42;68.03
71567;BME280;59403;47.456;19.120;2023-02-28T05:24:40;101541.00;;;0.41;68.29
71567;BME280;59403;47.456;19.120;2023-02-28T05:27:08;101534.94;;;0.40;68.57
71567;BME280;59403;47.456;19.120;2023-02-28T05:29:35;101536.66;;;0.41;68.09
71567;BME280;59403;47.456;19.120;2023-02-28T05:34:37;101544.53;;;0.40;67.88
71567;BME280;59403;47.456;19.120;2023-02-28T05:37:04;101550.56;;;0.40;67.86
71567;BME280;59403;47.456;19.120;2023-02-28T05:39:31;101550.53;;;0.42;67.93
71567;BME280;59403;47.456;19.120;2023-02-28T05:41:58;101543.56;;;0.42;67.78
71567;BME280;59403;47.456;19.120;2023-02-28T05:44:25;101543.62;;;0.41;67.84
71567;BME280;59403;47.456;19.120;2023-02-28T05:46:52;101547.94;;;0.42;67.94
71567;BME280;59403;47.456;19.120;2023-02-28T05:49:18;101551.50;;;0.39;67.66
71567;BME280;59403;47.456;19.120;2023-02-28T05:51:47;101559.31;;;0.39;67.38
71567;BME280;59403;47.456;19.120;2023-02-28T05:54:14;101561.78;;;0.42;67.58
71567;BME280;59403;47.456;19.120;2023-02-28T05:56:41;101559.13;;;0.44;67.87
71567;BME280;59403;47.456;19.120;2023-02-28T05:59:09;101570.31;;;0.46;67.90
71567;BME280;59403;47.456;19.120;2023-02-28T06:01:38;101562.44;;;0.47;67.74
71567;BME280;59403;47.456;19.120;2023-02-28T06:04:07;101567.53;;;0.50;67.88
71567;BME280;59403;47.456;19.120;2023-02-28T06:06:35;101565.69;;;0.52;68.26
71567;BME280;59403;47.456;19.120;2023-02-28T06:09:04;101563.88;;;0.54;68.05
71567;BME280;59403;47.456;19.120;2023-02-28T06:11:31;101574.31;;;0.54;68.17
71567;BME280;59403;47.456;19.120;2023-02-28T06:13:59;101570.31;;;0.46;67.51
71567;BME280;59403;47.456;19.120;2023-02-28T06:16:26;101564.00;;;0.51;67.81
71567;BME280;59403;47.456;19.120;2023-02-28T06:18:53;101575.22;;;0.53;67.89
71567;BME280;59403;47.456;19.120;2023-02-28T06:21:21;101573.56;;;0.51;67.01
71567;BME280;59403;47.456;19.120;2023-02-28T06:23:48;101579.56;;;0.53;66.78
71567;BME280;59403;47.456;19.120;2023-02-28T06:26:17;101576.72;;;0.59;66.94
71567;BME280;59403;47.456;19.120;2023-02-28T06:28:43;101576.59;;;0.62;67.18
71567;BME280;59403;47.456;19.120;2023-02-28T06:31:12;101583.63;;;0.60;66.61
71567;BME280;59403;47.456;19.120;2023-02-28T06:33:40;101573.84;;;0.65;66.33
71567;BME280;59403;47.456;19.120;2023-02-28T06:36:09;101594.44;;;0.71;66.49
71567;BME280;59403;47.456;19.120;2023-02-28T06:38:36;101590.66;;;0.78;66.41
71567;BME280;59403;47.456;19.120;2023-02-28T06:41:04;101586.97;;;0.83;66.27
71567;BME280;59403;47.456;19.120;2023-02-28T06:43:35;101604.13;;;0.87;66.26
71567;BME280;59403;47.456;19.120;2023-02-28T06:46:04;101597.38;;;0.83;65.51
71567;BME280;59403;47.456;19.120;2023-02-28T06:48:32;101601.81;;;0.81;65.64
71567;BME280;59403;47.456;19.120;2023-02-28T06:51:02;101594.81;;;0.82;65.39
71567;BME280;59403;47.456;19.120;2023-02-28T06:53:30;101596.06;;;0.93;65.43
71567;BME280;59403;47.456;19.120;2023-02-28T06:55:56;101583.91;;;0.92;64.47
71567;BME280;59403;47.456;19.120;2023-02-28T06:58:23;101593.06;;;1.02;64.73
71567;BME280;59403;47.456;19.120;2023-02-28T07:00:52;101589.84;;;0.96;64.22
71567;BME280;59403;47.456;19.120;2023-02-28T07:03:20;101593.81;;;1.04;64.42
71567;BME280;59403;47.456;19.120;2023-02-28T07:05:48;101602.81;;;1.17;64.36
71567;BME280;59403;47.456;19.120;2023-02-28T07:08:16;101606.91;;;1.23;64.18
71567;BME280;59403;47.456;19.120;2023-02-28T07:10:43;101599.19;;;1.20;63.30
71567;BME280;59403;47.456;19.120;2023-02-28T07:13:11;101611.12;;;1.26;63.69
71567;BME280;59403;47.456;19.120;2023-02-28T07:15:38;101608.25;;;1.32;62.70
71567;BME280;59403;47.456;19.120;2023-02-28T07:18:07;101611.59;;;1.35;63.60
71567;BME280;59403;47.456;19.120;2023-02-28T07:20:37;101611.91;;;1.46;63.48
71567;BME280;59403;47.456;19.120;2023-02-28T07:23:07;101609.28;;;1.48;62.88
71567;BME280;59403;47.456;19.120;2023-02-28T07:26:07;101611.88;;;1.48;62.12
71567;BME280;59403;47.456;19.120;2023-02-28T07:29:03;101610.72;;;1.53;61.86
71567;BME280;59403;47.456;19.120;2023-02-28T07:31:30;101620.97;;;1.58;61.56
71567;BME280;59403;47.456;19.120;2023-02-28T07:33:58;101615.06;;;1.54;61.23
71567;BME280;59403;47.456;19.120;2023-02-28T07:36:25;101623.09;;;1.68;61.63
71567;BME280;59403;47.456;19.120;2023-02-28T07:38:52;101621.47;;;1.66;60.23
71567;BME280;59403;47.456;19.120;2023-02-28T07:41:20;101627.16;;;1.74;60.78
71567;BME280;59403;47.456;19.120;2023-02-28T07:43:47;101624.44;;;1.77;60.26
71567;BME280;59403;47.456;19.120;2023-02-28T07:46:16;101623.87;;;1.70;59.90
71567;BME280;59403;47.456;19.120;2023-02-28T07:48:43;101637.50;;;1.77;60.36
71567;BME280;59403;47.456;19.120;2023-02-28T07:51:12;101625.00;;;1.83;60.44
71567;BME280;59403;47.456;19.120;2023-02-28T07:53:39;101624.19;;;2.00;60.28
71567;BME280;59403;47.456;19.120;2023-02-28T07:56:07;101623.28;;;2.01;60.21
71567;BME280;59403;47.456;19.120;2023-02-28T07:58:34;101626.37;;;2.09;60.48
71567;BME280;59403;47.456;19.120;2023-02-28T08:01:05;101623.03;;;2.05;59.46
71567;BME280;59403;47.456;19.120;2023-02-28T08:03:32;101621.88;;;2.29;59.41
71567;BME280;59403;47.456;19.120;2023-02-28T08:05:59;101628.19;;;2.25;58.67
71567;BME280;59403;47.456;19.120;2023-02-28T08:08:29;101628.88;;;2.29;58.37
71567;BME280;59403;47.456;19.120;2023-02-28T08:10:58;101626.03;;;2.33;58.19
71567;BME280;59403;47.456;19.120;2023-02-28T08:13:25;101621.41;;;2.39;57.66
71567;BME280;59403;47.456;19.120;2023-02-28T08:15:52;101625.84;;;2.55;58.97
71567;BME280;59403;47.456;19.120;2023-02-28T08:18:19;101621.59;;;2.53;56.92
71567;BME280;59403;47.456;19.120;2023-02-28T08:20:46;101626.44;;;2.60;57.97
71567;BME280;59403;47.456;19.120;2023-02-28T08:23:13;101628.53;;;2.71;57.14
71567;BME280;59403;47.456;19.120;2023-02-28T08:25:42;101624.91;;;2.73;57.45
71567;BME280;59403;47.456;19.120;2023-02-28T08:28:08;101624.88;;;2.90;57.47
71567;BME280;59403;47.456;19.120;2023-02-28T08:30:35;101626.13;;;3.00;56.69
71567;BME280;59403;47.456;19.120;2023-02-28T08:33:02;101624.88;;;2.90;56.37
71567;BME280;59403;47.456;19.120;2023-02-28T08:35:29;101620.75;;;2.86;56.78
71567;BME280;59403;47.456;19.120;2023-02-28T08:37:56;101619.75;;;2.72;56.80
71567;BME280;59403;47.456;19.120;2023-02-28T08:40:23;101623.50;;;2.66;56.58
71567;BME280;59403;47.456;19.120;2023-02-28T08:42:51;101627.50;;;2.73;57.91
71567;BME280;59403;47.456;19.120;2023-02-28T08:45:18;101622.12;;;2.93;57.46
71567;BME280;59403;47.456;19.120;2023-02-28T08:47:45;101619.59;;;2.92;56.52
71567;BME280;59403;47.456;19.120;2023-02-28T08:50:12;101623.03;;;2.92;56.80
71567;BME280;59403;47.456;19.120;2023-02-28T08:52:42;101622.44;;;2.87;57.38
71567;BME280;59403;47.456;19.120;2023-02-28T08:55:09;101617.69;;;2.95;56.79
71567;BME280;59403;47.456;19.120;2023-02-28T08:57:36;101620.59;;;2.89;56.58
71567;BME280;59403;47.456;19.120;2023-02-28T09:00:05;101617.63;;;3.12;57.74
71567;BME280;59403;47.456;19.120;2023-02-28T09:02:33;101612.09;;;3.34;56.47
71567;BME280;59403;47.456;19.120;2023-02-28T09:05:00;101612.97;;;3.34;56.35
71567;BME280;59403;47.456;19.120;2023-02-28T09:07:28;101617.50;;;3.31;56.39
71567;BME280;59403;47.456;19.120;2023-02-28T09:09:55;101619.69;;;3.56;56.23
71567;BME280;59403;47.456;19.120;2023-02-28T09:12:24;101618.12;;;3.52;55.58
71567;BME280;59403;47.456;19.120;2023-02-28T09:14:52;101616.37;;;3.52;56.54
71567;BME280;59403;47.456;19.120;2023-02-28T09:17:20;101618.41;;;3.47;56.60
71567;BME280;59403;47.456;19.120;2023-02-28T09:19:48;101619.84;;;3.20;57.28
71567;BME280;59403;47.456;19.120;2023-02-28T09:22:15;101624.50;;;3.30;57.03
71567;BME280;59403;47.456;19.120;2023-02-28T09:24:42;101621.94;;;3.46;56.77
71567;BME280;59403;47.456;19.120;2023-02-28T09:27:09;101627.69;;;3.37;56.66
71567;BME280;59403;47.456;19.120;2023-02-28T09:29:36;101620.75;;;3.52;56.98
71567;BME280;59403;47.456;19.120;2023-02-28T09:32:04;101627.03;;;3.49;56.66
71567;BME280;59403;47.456;19.120;2023-02-28T09:34:32;101627.22;;;3.29;57.31
71567;BME280;59403;47.456;19.120;2023-02-28T09:36:59;101623.19;;;3.55;56.45
71567;BME280;59403;47.456;19.120;2023-02-28T09:39:28;101619.31;;;3.62;55.93
71567;BME280;59403;47.456;19.120;2023-02-28T09:41:55;101631.62;;;3.77;56.54
71567;BME280;59403;47.456;19.120;2023-02-28T09:44:28;101637.66;;;3.62;56.84
71567;BME280;59403;47.456;19.120;2023-02-28T09:46:57;101626.59;;;3.72;56.09
71567;BME280;59403;47.456;19.120;2023-02-28T09:49:31;101621.47;;;3.86;55.50
71567;BME280;59403;47.456;19.120;2023-02-28T09:52:03;101617.56;;;3.78;56.16
71567;BME280;59403;47.456;19.120;2023-02-28T09:54:32;101619.50;;;3.90;55.27
71567;BME280;59403;47.456;19.120;2023-02-28T09:57:01;101623.50;;;3.97;56.10
71567;BME280;59403;47.456;19.120;2023-02-28T09:59:40;101621.22;;;3.91;55.57
71567;BME280;59403;47.456;19.120;2023-02-28T10:02:35;101622.22;;;4.19;55.64
71567;BME280;59403;47.456;19.120;2023-02-28T10:05:09;101614.31;;;4.35;55.60
71567;BME280;59403;47.456;19.120;2023-02-28T10:07:52;101614.22;;;4.36;55.02
71567;BME280;59403;47.456;19.120;2023-02-28T10:10:27;101610.06;;;3.87;55.42
71567;BME280;59403;47.456;19.120;2023-02-28T10:12:59;101606.75;;;3.99;54.97
71567;BME280;59403;47.456;19.120;2023-02-28T10:15:30;101604.34;;;4.26;55.70
71567;BME280;59403;47.456;19.120;2023-02-28T10:18:00;101600.41;;;4.48;54.91
71567;BME280;59403;47.456;19.120;2023-02-28T10:20:33;101598.59;;;4.35;54.75
71567;BME280;59403;47.456;19.120;2023-02-28T10:23:05;101594.28;;;4.63;54.88
71567;BME280;59403;47.456;19.120;2023-02-28T10:25:38;101598.44;;;4.52;54.75
71567;BME280;59403;47.456;19.120;2023-02-28T10:28:10;101603.28;;;4.74;55.51
71567;BME280;59403;47.456;19.120;2023-02-28T10:30:39;101596.19;;;4.76;54.60
71567;BME280;59403;47.456;19.120;2023-02-28T10:33:17;101593.19;;;4.82;55.22
71567;BME280;59403;47.456;19.120;2023-02-28T10:35:46;101593.09;;;4.97;55.05
71567;BME280;59403;47.456;19.120;2023-02-28T10:38:17;101590.47;;;4.97;54.84
71567;BME280;59403;47.456;19.120;2023-02-28T10:40:44;101590.97;;;4.90;54.71
71567;BME280;59403;47.456;19.120;2023-02-28T10:43:20;101597.31;;;4.86;54.31
71567;BME280;59403;47.456;19.120;2023-02-28T10:45:56;101584.75;;;4.77;54.42
71567;BME280;59403;47.456;19.120;2023-02-28T10:50:57;101573.63;;;5.01;54.15
71567;BME280;59403;47.456;19.120;2023-02-28T10:53:34;101577.50;;;4.66;54.53
71567;BME280;59403;47.456;19.120;2023-02-28T10:56:03;101570.78;;;4.90;54.80
71567;BME280;59403;47.456;19.120;2023-02-28T10:58:45;101579.13;;;4.83;54.43
71567;BME280;59403;47.456;19.120;2023-02-28T11:01:15;101577.69;;;4.63;55.38
71567;BME280;59403;47.456;19.120;2023-02-28T11:03:43;101568.09;;;4.92;54.64
71567;BME280;59403;47.456;19.120;2023-02-28T11:06:17;101568.81;;;4.94;55.22
71567;BME280;59403;47.456;19.120;2023-02-28T11:08:48;101565.19;;;4.96;54.38
71567;BME280;59403;47.456;19.120;2023-02-28T11:11:16;101572.87;;;5.27;54.35
71567;BME280;59403;47.456;19.120;2023-02-28T11:13:45;101569.41;;;5.27;53.66
71567;BME280;59403;47.456;19.120;2023-02-28T11:16:14;101570.16;;;5.15;53.45
71567;BME280;59403;47.456;19.120;2023-02-28T11:21:34;101557.19;;;5.54;54.12
71567;BME280;59403;47.456;19.120;2023-02-28T11:24:13;101560.56;;;5.56;53.91
71567;BME280;59403;47.456;19.120;2023-02-28T11:26:44;101569.69;;;5.22;53.67
71567;BME280;59403;47.456;19.120;2023-02-28T11:29:17;101564.53;;;5.07;54.29
71567;BME280;59403;47.456;19.120;2023-02-28T11:32:01;101560.41;;;5.31;54.91
71567;BME280;59403;47.456;19.120;2023-02-28T11:34:29;101554.03;;;5.07;54.88
71567;BME280;59403;47.456;19.120;2023-02-28T11:36:59;101551.31;;;5.22;55.52
71567;BME280;59403;47.456;19.120;2023-02-28T11:39:35;101554.59;;;5.12;55.47
71567;BME280;59403;47.456;19.120;2023-02-28T11:42:14;101549.06;;;5.16;55.15
71567;BME280;59403;47.456;19.120;2023-02-28T11:44:54;101544.38;;;5.07;55.42
71567;BME280;59403;47.456;19.120;2023-02-28T11:47:33;101550.25;;;5.25;55.64
71567;BME280;59403;47.456;19.120;2023-02-28T11:50:24;101537.00;;;5.40;54.45
71567;BME280;59403;47.456;19.120;2023-02-28T11:52:56;101541.22;;;5.57;54.30
71567;BME280;59403;47.456;19.120;2023-02-28T11:55:30;101543.06;;;5.83;54.20
71567;BME280;59403;47.456;19.120;2023-02-28T12:01:19;101534.94;;;6.00;53.29
71567;BME280;59403;47.456;19.120;2023-02-28T12:03:58;101528.37;;;6.20;52.97
71567;BME280;59403;47.456;19.120;2023-02-28T12:06:33;101532.56;;;6.10;54.04
71567;BME280;59403;47.456;19.120;2023-02-28T12:09:27;101531.22;;;6.17;53.22
71567;BME280;59403;47.456;19.120;2023-02-28T12:12:01;101527.72;;;6.16;53.09
71567;BME280;59403;47.456;19.120;2023-02-28T12:17:46;101533.94;;;5.89;55.58
71567;BME280;59403;47.456;19.120;2023-02-28T12:20:25;101521.56;;;6.03;55.66
71567;BME280;59403;47.456;19.120;2023-02-28T12:23:07;101512.50;;;5.95;55.73
71567;BME280;59403;47.456;19.120;2023-02-28T12:26:03;101511.25;;;6.00;55.24
71567;BME280;59403;47.456;19.120;2023-02-28T12:28:38;101505.41;;;6.09;56.48
71567;BME280;59403;47.456;19.120;2023-02-28T12:31:11;101508.53;;;6.41;54.75
71567;BME280;59403;47.456;19.120;2023-02-28T12:33:43;101502.62;;;6.37;53.70
71567;BME280;59403;47.456;19.120;2023-02-28T12:36:15;101504.13;;;6.02;53.88
71567;BME280;59403;47.456;19.120;2023-02-28T12:38:47;101503.28;;;6.02;54.29
71567;BME280;59403;47.456;19.120;2023-02-28T12:41:19;101499.03;;;5.87;54.24
71567;BME280;59403;47.456;19.120;2023-02-28T12:43:54;101502.50;;;6.26;55.82
71567;BME280;59403;47.456;19.120;2023-02-28T12:46:29;101496.19;;;6.29;54.60
71567;BME280;59403;47.456;19.120;2023-02-28T12:51:25;101494.06;;;6.21;54.97
71567;BME280;59403;47.456;19.120;2023-02-28T12:54:02;101490.50;;;6.35;54.64
71567;BME280;59403;47.456;19.120;2023-02-28T12:56:42;101486.22;;;6.34;55.48
71567;BME280;59403;47.456;19.120;2023-02-28T12:59:21;101490.28;;;6.38;54.85
71567;BME280;59403;47.456;19.120;2023-02-28T13:02:10;101485.03;;;6.38;54.33
71567;BME280;59403;47.456;19.120;2023-02-28T13:05:07;101475.88;;;6.31;54.92
71567;BME280;59403;47.456;19.120;2023-02-28T13:08:05;101485.53;;;6.18;54.89
71567;BME280;59403;47.456;19.120;2023-02-28T13:10:40;101490.47;;;6.10;54.66
71567;BME280;59403;47.456;19.120;2023-02-28T13:13:14;101482.66;;;5.96;55.93
71567;BME280;59403;47.456;19.120;2023-02-28T13:16:00;101480.84;;;5.96;56.27
71567;BME280;59403;47.456;19.120;2023-02-28T13:18:31;101481.59;;;5.98;56.29
71567;BME280;59403;47.456;19.120;2023-02-28T13:20:59;101488.44;;;6.01;56.49
71567;BME280;59403;47.456;19.120;2023-02-28T13:24:00;101483.19;;;6.01;56.38
71567;BME280;59403;47.456;19.120;2023-02-28T13:29:34;101464.25;;;5.96;55.97
71567;BME280;59403;47.456;19.120;2023-02-28T13:35:38;101475.59;;;5.96;56.82
71567;BME280;59403;47.456;19.120;2023-02-28T13:38:33;101465.00;;;5.98;55.49
71567;BME280;59403;47.456;19.120;2023-02-28T13:44:06;101465.75;;;6.12;55.71